sensor_id;sensor_type;location;lat;lon;timestamp;P1;durP1;ratioP1;P2;durP2;ratioP2
211;SDS011;16228;48.800;9.002;2023-02-15T00:01:57;43.03;;;25.93;;
211;SDS011;16228;48.800;9.002;2023-02-15T00:04:24;47.93;;;28.60;;
211;SDS011;16228;48.800;9.002;2023-02-15T00:07:12;45.17;;;27.63;;
211;SDS011;16228;48.800;9.002;2023-02-15T00:09:39;46.03;;;28.60;;
211;SDS011;16228;48.800;9.002;2023-02-15T00:12:06;43.67;;;29.33;;
211;SDS011;16228;48.800;9.002;2023-02-15T00:14:34;41.20;;;28.07;;
211;SDS011;16228;48.800;9.002;2023-02-15T00:17:02;44.30;;;26.80;;
211;SDS011;16228;48.800;9.002;2023-02-15T00:19:30;45.40;;;28.47;;
211;SDS011;16228;48.800;9.002;2023-02-15T00:21:57;40.60;;;26.83;;
211;SDS011;16228;48.800;9.002;2023-02-15T00:24:24;47.67;;;29.30;;
211;SDS011;16228;48.800;9.002;2023-02-15T00:26:51;44.80;;;28.33;;
211;SDS011;16228;48.800;9.002;2023-02-15T00:29:18;43.47;;;26.87;;
211;SDS011;16228;48.800;9.002;2023-02-15T00:31:46;43.00;;;27.23;;
211;SDS011;16228;48.800;9.002;2023-02-15T00:34:15;35.53;;;23.33;;
211;SDS011;16228;48.800;9.002;2023-02-15T00:36:44;44.13;;;26.77;;
211;SDS011;16228;48.800;9.002;2023-02-15T00:39:11;45.30;;;26.67;;
211;SDS011;16228;48.800;9.002;2023-02-15T00:41:39;40.10;;;25.33;;
211;SDS011;16228;48.800;9.002;2023-02-15T00:44:06;40.30;;;24.03;;
211;SDS011;16228;48.800;9.002;2023-02-15T00:46:34;42.73;;;25.60;;
211;SDS011;16228;48.800;9.002;2023-02-15T00:49:01;39.03;;;23.23;;
211;SDS011;16228;48.800;9.002;2023-02-15T00:51:30;43.83;;;25.10;;
211;SDS011;16228;48.800;9.002;2023-02-15T00:53:58;37.00;;;24.37;;
211;SDS011;16228;48.800;9.002;2023-02-15T00:56:25;42.63;;;26.63;;
211;SDS011;16228;48.800;9.002;2023-02-15T00:58:53;39.83;;;24.60;;
211;SDS011;16228;48.800;9.002;2023-02-15T01:01:20;37.03;;;23.63;;
211;SDS011;16228;48.800;9.002;2023-02-15T01:03:48;37.70;;;24.33;;
211;SDS011;16228;48.800;9.002;2023-02-15T01:06:15;38.77;;;24.60;;
211;SDS011;16228;48.800;9.002;2023-02-15T01:08:44;43.13;;;23.27;;
211;SDS011;16228;48.800;9.002;2023-02-15T01:11:13;38.97;;;24.17;;
211;SDS011;16228;48.800;9.002;2023-02-15T01:13:47;43.17;;;25.73;;
211;SDS011;16228;48.800;9.002;2023-02-15T01:16:15;37.33;;;24.60;;
211;SDS011;16228;48.800;9.002;2023-02-15T01:18:42;40.47;;;25.93;;
211;SDS011;16228;48.800;9.002;2023-02-15T01:21:10;41.50;;;26.63;;
211;SDS011;16228;48.800;9.002;2023-02-15T01:23:39;42.37;;;25.87;;
211;SDS011;16228;48.800;9.002;2023-02-15T01:26:07;38.03;;;23.37;;
211;SDS011;16228;48.800;9.002;2023-02-15T01:28:35;38.03;;;24.77;;
211;SDS011;16228;48.800;9.002;2023-02-15T01:31:06;42.33;;;26.57;;
211;SDS011;16228;48.800;9.002;2023-02-15T01:33:34;43.27;;;24.90;;
211;SDS011;16228;48.800;9.002;2023-02-15T01:36:02;36.60;;;23.77;;
211;SDS011;16228;48.800;9.002;2023-02-15T01:38:30;40.70;;;25.67;;
211;SDS011;16228;48.800;9.002;2023-02-15T01:40:57;38.77;;;23.70;;
211;SDS011;16228;48.800;9.002;2023-02-15T01:43:47;34.90;;;22.20;;
211;SDS011;16228;48.800;9.002;2023-02-15T01:46:15;41.27;;;25.07;;
211;SDS011;16228;48.800;9.002;2023-02-15T01:48:46;40.57;;;25.57;;
211;SDS011;16228;48.800;9.002;2023-02-15T01:51:16;39.73;;;24.83;;
211;SDS011;16228;48.800;9.002;2023-02-15T01:53:47;35.10;;;22.20;;
211;SDS011;16228;48.800;9.002;2023-02-15T01:56:19;28.90;;;20.43;;
211;SDS011;16228;48.800;9.002;2023-02-15T01:58:50;38.60;;;26.37;;
211;SDS011;16228;48.800;9.002;2023-02-15T02:01:20;39.83;;;25.47;;
211;SDS011;16228;48.800;9.002;2023-02-15T02:03:50;38.73;;;24.13;;
211;SDS011;16228;48.800;9.002;2023-02-15T02:06:25;49.20;;;26.10;;
211;SDS011;16228;48.800;9.002;2023-02-15T02:08:53;35.80;;;24.27;;
211;SDS011;16228;48.800;9.002;2023-02-15T02:11:20;40.57;;;24.87;;
211;SDS011;16228;48.800;9.002;2023-02-15T02:13:47;40.00;;;24.83;;
211;SDS011;16228;48.800;9.002;2023-02-15T02:16:18;42.57;;;25.90;;
211;SDS011;16228;48.800;9.002;2023-02-15T02:18:50;42.10;;;26.83;;
211;SDS011;16228;48.800;9.002;2023-02-15T02:27:36;42.83;;;26.27;;
211;SDS011;16228;48.800;9.002;2023-02-15T02:30:22;38.10;;;23.17;;
211;SDS011;16228;48.800;9.002;2023-02-15T02:33:20;37.93;;;23.50;;
211;SDS011;16228;48.800;9.002;2023-02-15T02:35:57;39.97;;;25.37;;
211;SDS011;16228;48.800;9.002;2023-02-15T02:38:35;37.67;;;24.20;;
211;SDS011;16228;48.800;9.002;2023-02-15T02:41:12;36.23;;;22.40;;
211;SDS011;16228;48.800;9.002;2023-02-15T02:43:45;34.27;;;21.97;;
211;SDS011;16228;48.800;9.002;2023-02-15T02:46:20;39.27;;;24.37;;
211;SDS011;16228;48.800;9.002;2023-02-15T02:48:53;37.43;;;23.00;;
211;SDS011;16228;48.800;9.002;2023-02-15T02:51:20;36.87;;;23.50;;
211;SDS011;16228;48.800;9.002;2023-02-15T02:53:50;33.60;;;21.37;;
211;SDS011;16228;48.800;9.002;2023-02-15T02:56:21;37.43;;;22.70;;
211;SDS011;16228;48.800;9.002;2023-02-15T02:58:55;43.80;;;24.70;;
211;SDS011;16228;48.800;9.002;2023-02-15T03:01:27;50.40;;;27.93;;
211;SDS011;16228;48.800;9.002;2023-02-15T03:04:01;46.43;;;26.57;;
211;SDS011;16228;48.800;9.002;2023-02-15T03:06:33;61.87;;;29.40;;
211;SDS011;16228;48.800;9.002;2023-02-15T03:09:07;70.53;;;30.83;;
211;SDS011;16228;48.800;9.002;2023-02-15T03:11:39;67.97;;;32.13;;
211;SDS011;16228;48.800;9.002;2023-02-15T03:14:09;72.27;;;34.33;;
211;SDS011;16228;48.800;9.002;2023-02-15T03:16:37;82.43;;;36.10;;
211;SDS011;16228;48.800;9.002;2023-02-15T03:19:07;60.50;;;29.53;;
211;SDS011;16228;48.800;9.002;2023-02-15T03:21:37;92.63;;;35.13;;
211;SDS011;16228;48.800;9.002;2023-02-15T03:24:09;59.77;;;30.27;;
211;SDS011;16228;48.800;9.002;2023-02-15T03:26:39;77.73;;;33.20;;
211;SDS011;16228;48.800;9.002;2023-02-15T03:29:08;70.53;;;32.77;;
211;SDS011;16228;48.800;9.002;2023-02-15T03:31:37;73.93;;;33.53;;
211;SDS011;16228;48.800;9.002;2023-02-15T03:34:09;73.23;;;34.20;;
211;SDS011;16228;48.800;9.002;2023-02-15T03:36:40;80.37;;;34.80;;
211;SDS011;16228;48.800;9.002;2023-02-15T03:39:13;92.10;;;35.93;;
211;SDS011;16228;48.800;9.002;2023-02-15T03:41:48;65.43;;;32.10;;
211;SDS011;16228;48.800;9.002;2023-02-15T03:44:23;98.43;;;38.40;;
211;SDS011;16228;48.800;9.002;2023-02-15T03:46:53;69.27;;;32.83;;
211;SDS011;16228;48.800;9.002;2023-02-15T03:49:28;86.27;;;35.40;;
211;SDS011;16228;48.800;9.002;2023-02-15T03:51:59;65.53;;;32.67;;
211;SDS011;16228;48.800;9.002;2023-02-15T03:54:30;100.40;;;37.50;;
211;SDS011;16228;48.800;9.002;2023-02-15T03:57:10;82.57;;;34.60;;
211;SDS011;16228;48.800;9.002;2023-02-15T03:59:56;99.73;;;38.03;;
211;SDS011;16228;48.800;9.002;2023-02-15T04:02:44;117.77;;;36.43;;
211;SDS011;16228;48.800;9.002;2023-02-15T04:05:21;57.80;;;30.80;;
211;SDS011;16228;48.800;9.002;2023-02-15T04:07:48;116.40;;;35.57;;
211;SDS011;16228;48.800;9.002;2023-02-15T04:10:15;108.13;;;38.33;;
211;SDS011;16228;48.800;9.002;2023-02-15T04:12:59;143.80;;;40.60;;
211;SDS011;16228;48.800;9.002;2023-02-15T04:15:26;68.37;;;31.93;;
211;SDS011;16228;48.800;9.002;2023-02-15T04:18:11;72.83;;;33.83;;
211;SDS011;16228;48.800;9.002;2023-02-15T04:20:40;76.30;;;35.80;;
211;SDS011;16228;48.800;9.002;2023-02-15T04:23:27;107.47;;;38.07;;
211;SDS011;16228;48.800;9.002;2023-02-15T04:26:12;75.07;;;33.40;;
211;SDS011;16228;48.800;9.002;2023-02-15T04:28:39;95.37;;;36.10;;
211;SDS011;16228;48.800;9.002;2023-02-15T04:31:06;79.47;;;34.23;;
211;SDS011;16228;48.800;9.002;2023-02-15T04:33:33;115.80;;;40.30;;
211;SDS011;16228;48.800;9.002;2023-02-15T04:36:02;78.97;;;36.90;;
211;SDS011;16228;48.800;9.002;2023-02-15T04:38:29;67.10;;;32.23;;
211;SDS011;16228;48.800;9.002;2023-02-15T04:40:56;87.17;;;35.67;;
211;SDS011;16228;48.800;9.002;2023-02-15T04:43:23;71.93;;;33.67;;
211;SDS011;16228;48.800;9.002;2023-02-15T04:45:50;53.70;;;30.43;;
211;SDS011;16228;48.800;9.002;2023-02-15T04:48:18;57.10;;;30.57;;
211;SDS011;16228;48.800;9.002;2023-02-15T04:50:45;48.13;;;28.53;;
211;SDS011;16228;48.800;9.002;2023-02-15T04:53:13;61.10;;;31.47;;
211;SDS011;16228;48.800;9.002;2023-02-15T04:55:42;73.30;;;34.57;;
211;SDS011;16228;48.800;9.002;2023-02-15T04:58:09;52.00;;;30.67;;
211;SDS011;16228;48.800;9.002;2023-02-15T05:00:36;48.87;;;29.07;;
211;SDS011;16228;48.800;9.002;2023-02-15T05:03:03;45.00;;;28.77;;
211;SDS011;16228;48.800;9.002;2023-02-15T05:05:30;58.47;;;30.27;;
211;SDS011;16228;48.800;9.002;2023-02-15T05:07:57;74.30;;;34.33;;
211;SDS011;16228;48.800;9.002;2023-02-15T05:10:25;69.80;;;32.13;;
211;SDS011;16228;48.800;9.002;2023-02-15T05:12:52;60.17;;;34.10;;
211;SDS011;16228;48.800;9.002;2023-02-15T05:15:19;68.03;;;32.40;;
211;SDS011;16228;48.800;9.002;2023-02-15T05:17:46;62.23;;;33.63;;
211;SDS011;16228;48.800;9.002;2023-02-15T05:20:13;43.40;;;27.93;;
211;SDS011;16228;48.800;9.002;2023-02-15T05:22:40;46.57;;;28.27;;
211;SDS011;16228;48.800;9.002;2023-02-15T05:25:07;43.23;;;27.30;;
211;SDS011;16228;48.800;9.002;2023-02-15T05:27:53;45.43;;;27.70;;
211;SDS011;16228;48.800;9.002;2023-02-15T05:30:38;43.10;;;27.83;;
211;SDS011;16228;48.800;9.002;2023-02-15T05:33:05;48.17;;;29.10;;
211;SDS011;16228;48.800;9.002;2023-02-15T05:35:33;42.00;;;27.87;;
211;SDS011;16228;48.800;9.002;2023-02-15T05:38:01;47.67;;;29.13;;
211;SDS011;16228;48.800;9.002;2023-02-15T05:40:29;40.47;;;27.23;;
211;SDS011;16228;48.800;9.002;2023-02-15T05:42:57;36.70;;;23.37;;
211;SDS011;16228;48.800;9.002;2023-02-15T05:45:24;44.07;;;27.73;;
211;SDS011;16228;48.800;9.002;2023-02-15T05:47:51;43.50;;;27.77;;
211;SDS011;16228;48.800;9.002;2023-02-15T05:50:18;36.63;;;25.67;;
211;SDS011;16228;48.800;9.002;2023-02-15T05:52:45;37.17;;;24.27;;
211;SDS011;16228;48.800;9.002;2023-02-15T05:55:12;38.50;;;25.23;;
211;SDS011;16228;48.800;9.002;2023-02-15T05:57:39;34.93;;;23.50;;
211;SDS011;16228;48.800;9.002;2023-02-15T06:00:08;40.30;;;25.40;;
211;SDS011;16228;48.800;9.002;2023-02-15T06:02:36;35.47;;;23.83;;
211;SDS011;16228;48.800;9.002;2023-02-15T06:05:04;30.77;;;22.03;;
211;SDS011;16228;48.800;9.002;2023-02-15T06:07:32;31.50;;;22.40;;
211;SDS011;16228;48.800;9.002;2023-02-15T06:09:59;33.63;;;23.73;;
211;SDS011;16228;48.800;9.002;2023-02-15T06:12:26;36.13;;;24.83;;
211;SDS011;16228;48.800;9.002;2023-02-15T06:14:53;32.77;;;25.07;;
211;SDS011;16228;48.800;9.002;2023-02-15T06:17:21;40.63;;;26.90;;
211;SDS011;16228;48.800;9.002;2023-02-15T06:19:48;38.67;;;25.93;;
211;SDS011;16228;48.800;9.002;2023-02-15T06:22:15;37.80;;;25.73;;
211;SDS011;16228;48.800;9.002;2023-02-15T06:24:42;41.00;;;27.53;;
211;SDS011;16228;48.800;9.002;2023-02-15T06:27:09;36.90;;;26.03;;
211;SDS011;16228;48.800;9.002;2023-02-15T06:29:36;37.03;;;24.67;;
211;SDS011;16228;48.800;9.002;2023-02-15T06:32:03;35.03;;;25.23;;
211;SDS011;16228;48.800;9.002;2023-02-15T06:34:32;32.30;;;23.40;;
211;SDS011;16228;48.800;9.002;2023-02-15T06:36:59;31.17;;;22.73;;
211;SDS011;16228;48.800;9.002;2023-02-15T06:39:26;33.67;;;23.20;;
211;SDS011;16228;48.800;9.002;2023-02-15T06:41:53;35.00;;;23.23;;
211;SDS011;16228;48.800;9.002;2023-02-15T06:44:20;36.17;;;24.40;;
211;SDS011;16228;48.800;9.002;2023-02-15T06:46:47;36.93;;;25.80;;
211;SDS011;16228;48.800;9.002;2023-02-15T06:49:14;34.07;;;24.17;;
211;SDS011;16228;48.800;9.002;2023-02-15T06:51:42;30.80;;;23.80;;
211;SDS011;16228;48.800;9.002;2023-02-15T06:54:09;28.97;;;21.00;;
211;SDS011;16228;48.800;9.002;2023-02-15T06:56:36;34.83;;;24.47;;
211;SDS011;16228;48.800;9.002;2023-02-15T06:59:03;34.37;;;23.50;;
211;SDS011;16228;48.800;9.002;2023-02-15T07:01:30;34.40;;;24.57;;
211;SDS011;16228;48.800;9.002;2023-02-15T07:03:57;30.43;;;22.40;;
211;SDS011;16228;48.800;9.002;2023-02-15T07:06:24;33.20;;;23.57;;
211;SDS011;16228;48.800;9.002;2023-02-15T07:08:53;32.67;;;23.67;;
211;SDS011;16228;48.800;9.002;2023-02-15T07:11:20;37.27;;;24.83;;
211;SDS011;16228;48.800;9.002;2023-02-15T07:14:04;31.20;;;22.33;;
211;SDS011;16228;48.800;9.002;2023-02-15T07:16:31;36.07;;;24.33;;
211;SDS011;16228;48.800;9.002;2023-02-15T07:18:58;40.80;;;25.83;;
211;SDS011;16228;48.800;9.002;2023-02-15T07:21:25;31.43;;;23.17;;
211;SDS011;16228;48.800;9.002;2023-02-15T07:23:55;35.17;;;24.80;;
211;SDS011;16228;48.800;9.002;2023-02-15T07:26:22;34.33;;;23.33;;
211;SDS011;16228;48.800;9.002;2023-02-15T07:28:49;34.70;;;24.97;;
211;SDS011;16228;48.800;9.002;2023-02-15T07:31:16;38.83;;;27.63;;
211;SDS011;16228;48.800;9.002;2023-02-15T07:33:43;36.60;;;27.33;;
211;SDS011;16228;48.800;9.002;2023-02-15T07:36:11;37.07;;;26.43;;
211;SDS011;16228;48.800;9.002;2023-02-15T07:38:39;29.37;;;20.87;;
211;SDS011;16228;48.800;9.002;2023-02-15T07:41:08;25.90;;;18.83;;
211;SDS011;16228;48.800;9.002;2023-02-15T07:43:37;24.27;;;18.67;;
211;SDS011;16228;48.800;9.002;2023-02-15T07:46:06;25.63;;;18.30;;
211;SDS011;16228;48.800;9.002;2023-02-15T07:48:34;22.47;;;17.80;;
211;SDS011;16228;48.800;9.002;2023-02-15T07:51:02;20.20;;;16.27;;
211;SDS011;16228;48.800;9.002;2023-02-15T07:53:31;17.53;;;14.80;;
211;SDS011;16228;48.800;9.002;2023-02-15T07:55:58;18.20;;;14.47;;
211;SDS011;16228;48.800;9.002;2023-02-15T07:58:27;18.07;;;14.53;;
211;SDS011;16228;48.800;9.002;2023-02-15T08:01:08;18.70;;;14.53;;
211;SDS011;16228;48.800;9.002;2023-02-15T08:03:35;18.17;;;14.87;;
211;SDS011;16228;48.800;9.002;2023-02-15T08:06:02;22.27;;;16.03;;
211;SDS011;16228;48.800;9.002;2023-02-15T08:08:29;23.80;;;18.60;;
211;SDS011;16228;48.800;9.002;2023-02-15T08:11:00;20.70;;;15.47;;
211;SDS011;16228;48.800;9.002;2023-02-15T08:13:47;21.30;;;14.83;;
211;SDS011;16228;48.800;9.002;2023-02-15T08:16:24;19.30;;;15.60;;
211;SDS011;16228;48.800;9.002;2023-02-15T08:18:54;20.53;;;14.77;;
211;SDS011;16228;48.800;9.002;2023-02-15T08:21:21;21.03;;;15.77;;
211;SDS011;16228;48.800;9.002;2023-02-15T08:23:48;19.37;;;15.53;;
211;SDS011;16228;48.800;9.002;2023-02-15T08:26:15;16.90;;;14.40;;
211;SDS011;16228;48.800;9.002;2023-02-15T08:28:43;18.50;;;13.97;;
211;SDS011;16228;48.800;9.002;2023-02-15T08:31:13;17.07;;;14.03;;
211;SDS011;16228;48.800;9.002;2023-02-15T08:33:40;19.23;;;14.40;;
211;SDS011;16228;48.800;9.002;2023-02-15T08:36:10;17.87;;;15.17;;
211;SDS011;16228;48.800;9.002;2023-02-15T08:38:39;19.23;;;15.50;;
211;SDS011;16228;48.800;9.002;2023-02-15T08:41:10;18.13;;;14.03;;
211;SDS011;16228;48.800;9.002;2023-02-15T08:43:38;20.63;;;17.47;;
211;SDS011;16228;48.800;9.002;2023-02-15T08:46:06;18.30;;;15.03;;
211;SDS011;16228;48.800;9.002;2023-02-15T08:48:35;18.00;;;13.63;;
211;SDS011;16228;48.800;9.002;2023-02-15T08:51:06;17.17;;;13.27;;
211;SDS011;16228;48.800;9.002;2023-02-15T08:53:35;14.93;;;12.87;;
211;SDS011;16228;48.800;9.002;2023-02-15T08:56:03;16.03;;;13.30;;
211;SDS011;16228;48.800;9.002;2023-02-15T08:58:30;15.37;;;13.60;;
211;SDS011;16228;48.800;9.002;2023-02-15T09:00:58;14.27;;;12.77;;
211;SDS011;16228;48.800;9.002;2023-02-15T09:03:27;15.00;;;13.20;;
211;SDS011;16228;48.800;9.002;2023-02-15T09:05:59;14.73;;;13.23;;
211;SDS011;16228;48.800;9.002;2023-02-15T09:08:27;13.70;;;12.00;;
211;SDS011;16228;48.800;9.002;2023-02-15T09:11:03;16.27;;;13.07;;
211;SDS011;16228;48.800;9.002;2023-02-15T09:13:31;16.40;;;13.00;;
211;SDS011;16228;48.800;9.002;2023-02-15T09:15:59;12.57;;;11.27;;
211;SDS011;16228;48.800;9.002;2023-02-15T09:18:28;15.30;;;12.90;;
211;SDS011;16228;48.800;9.002;2023-02-15T09:20:57;13.37;;;11.07;;
211;SDS011;16228;48.800;9.002;2023-02-15T09:23:31;13.30;;;10.27;;
211;SDS011;16228;48.800;9.002;2023-02-15T09:26:01;12.77;;;10.83;;
211;SDS011;16228;48.800;9.002;2023-02-15T09:28:29;11.17;;;9.27;;
211;SDS011;16228;48.800;9.002;2023-02-15T09:31:03;14.67;;;10.50;;
211;SDS011;16228;48.800;9.002;2023-02-15T09:33:35;11.07;;;9.83;;
211;SDS011;16228;48.800;9.002;2023-02-15T09:36:05;15.13;;;11.77;;
211;SDS011;16228;48.800;9.002;2023-02-15T09:38:39;13.67;;;11.57;;
211;SDS011;16228;48.800;9.002;2023-02-15T09:41:11;15.83;;;10.73;;
211;SDS011;16228;48.800;9.002;2023-02-15T09:43:51;14.90;;;11.57;;
211;SDS011;16228;48.800;9.002;2023-02-15T09:46:32;18.50;;;11.27;;
211;SDS011;16228;48.800;9.002;2023-02-15T09:49:08;13.23;;;10.87;;
211;SDS011;16228;48.800;9.002;2023-02-15T09:51:54;11.03;;;9.93;;
211;SDS011;16228;48.800;9.002;2023-02-15T09:54:41;13.87;;;11.40;;
211;SDS011;16228;48.800;9.002;2023-02-15T09:57:22;13.67;;;11.77;;
211;SDS011;16228;48.800;9.002;2023-02-15T10:00:00;14.90;;;12.17;;
211;SDS011;16228;48.800;9.002;2023-02-15T10:02:38;14.27;;;11.77;;
211;SDS011;16228;48.800;9.002;2023-02-15T10:05:25;15.93;;;11.23;;
211;SDS011;16228;48.800;9.002;2023-02-15T10:08:09;15.03;;;13.20;;
211;SDS011;16228;48.800;9.002;2023-02-15T10:10:48;12.63;;;10.50;;
211;SDS011;16228;48.800;9.002;2023-02-15T10:13:44;16.17;;;13.00;;
211;SDS011;16228;48.800;9.002;2023-02-15T10:16:17;12.87;;;11.53;;
211;SDS011;16228;48.800;9.002;2023-02-15T10:18:52;14.73;;;12.73;;
211;SDS011;16228;48.800;9.002;2023-02-15T10:21:29;13.97;;;11.27;;
211;SDS011;16228;48.800;9.002;2023-02-15T10:26:59;11.83;;;10.57;;
211;SDS011;16228;48.800;9.002;2023-02-15T10:29:32;14.37;;;12.23;;
211;SDS011;16228;48.800;9.002;2023-02-15T10:32:05;11.83;;;10.63;;
211;SDS011;16228;48.800;9.002;2023-02-15T10:34:43;13.00;;;11.37;;
211;SDS011;16228;48.800;9.002;2023-02-15T10:37:20;13.40;;;12.00;;
211;SDS011;16228;48.800;9.002;2023-02-15T10:40:10;11.77;;;10.57;;
211;SDS011;16228;48.800;9.002;2023-02-15T10:42:48;15.70;;;12.43;;
211;SDS011;16228;48.800;9.002;2023-02-15T10:45:27;12.83;;;11.47;;
211;SDS011;16228;48.800;9.002;2023-02-15T10:48:07;13.77;;;11.37;;
211;SDS011;16228;48.800;9.002;2023-02-15T10:50:46;14.23;;;12.73;;
211;SDS011;16228;48.800;9.002;2023-02-15T10:53:27;13.87;;;12.50;;
211;SDS011;16228;48.800;9.002;2023-02-15T10:56:13;13.73;;;12.40;;
211;SDS011;16228;48.800;9.002;2023-02-15T11:01:35;14.33;;;12.83;;
211;SDS011;16228;48.800;9.002;2023-02-15T11:04:08;14.83;;;13.33;;
211;SDS011;16228;48.800;9.002;2023-02-15T11:07:08;14.37;;;12.87;;
211;SDS011;16228;48.800;9.002;2023-02-15T11:09:42;14.60;;;12.67;;
211;SDS011;16228;48.800;9.002;2023-02-15T11:12:13;15.20;;;13.70;;
211;SDS011;16228;48.800;9.002;2023-02-15T11:14:44;15.70;;;12.80;;
211;SDS011;16228;48.800;9.002;2023-02-15T11:17:16;16.47;;;14.07;;
211;SDS011;16228;48.800;9.002;2023-02-15T11:19:48;14.10;;;12.60;;
211;SDS011;16228;48.800;9.002;2023-02-15T11:22:23;14.80;;;13.30;;
211;SDS011;16228;48.800;9.002;2023-02-15T11:24:50;13.83;;;12.37;;
211;SDS011;16228;48.800;9.002;2023-02-15T11:27:21;15.40;;;12.17;;
211;SDS011;16228;48.800;9.002;2023-02-15T11:29:53;14.60;;;13.10;;
211;SDS011;16228;48.800;9.002;2023-02-15T11:32:26;15.77;;;13.57;;
211;SDS011;16228;48.800;9.002;2023-02-15T11:34:58;15.30;;;12.63;;
211;SDS011;16228;48.800;9.002;2023-02-15T11:37:32;15.37;;;13.73;;
211;SDS011;16228;48.800;9.002;2023-02-15T11:40:02;15.67;;;13.83;;
211;SDS011;16228;48.800;9.002;2023-02-15T11:42:41;15.63;;;13.40;;
211;SDS011;16228;48.800;9.002;2023-02-15T11:45:15;14.70;;;13.20;;
211;SDS011;16228;48.800;9.002;2023-02-15T11:47:47;14.70;;;13.10;;
211;SDS011;16228;48.800;9.002;2023-02-15T11:50:15;14.87;;;13.37;;
211;SDS011;16228;48.800;9.002;2023-02-15T11:52:47;14.27;;;12.77;;
211;SDS011;16228;48.800;9.002;2023-02-15T11:55:17;16.13;;;12.37;;
211;SDS011;16228;48.800;9.002;2023-02-15T11:57:48;15.23;;;13.27;;
211;SDS011;16228;48.800;9.002;2023-02-15T12:00:22;15.37;;;13.77;;
211;SDS011;16228;48.800;9.002;2023-02-15T12:03:01;15.70;;;14.03;;
211;SDS011;16228;48.800;9.002;2023-02-15T12:05:33;14.80;;;13.23;;
211;SDS011;16228;48.800;9.002;2023-02-15T12:08:03;15.63;;;14.00;;
211;SDS011;16228;48.800;9.002;2023-02-15T12:10:40;16.97;;;14.67;;
211;SDS011;16228;48.800;9.002;2023-02-15T12:13:19;17.00;;;14.67;;
211;SDS011;16228;48.800;9.002;2023-02-15T12:15:47;17.70;;;13.97;;
211;SDS011;16228;48.800;9.002;2023-02-15T12:18:19;16.03;;;14.40;;
211;SDS011;16228;48.800;9.002;2023-02-15T12:21:00;15.07;;;13.50;;
211;SDS011;16228;48.800;9.002;2023-02-15T12:23:30;14.90;;;13.30;;
211;SDS011;16228;48.800;9.002;2023-02-15T12:25:59;18.13;;;13.17;;
211;SDS011;16228;48.800;9.002;2023-02-15T12:28:29;14.30;;;12.63;;
211;SDS011;16228;48.800;9.002;2023-02-15T12:31:00;15.73;;;14.07;;
211;SDS011;16228;48.800;9.002;2023-02-15T12:33:30;15.23;;;13.63;;
211;SDS011;16228;48.800;9.002;2023-02-15T12:36:01;13.73;;;12.30;;
211;SDS011;16228;48.800;9.002;2023-02-15T12:38:35;15.77;;;13.93;;
211;SDS011;16228;48.800;9.002;2023-02-15T12:41:03;15.60;;;14.00;;
211;SDS011;16228;48.800;9.002;2023-02-15T12:43:39;16.37;;;14.53;;
211;SDS011;16228;48.800;9.002;2023-02-15T12:46:14;16.20;;;13.40;;
211;SDS011;16228;48.800;9.002;2023-02-15T12:48:46;16.57;;;14.83;;
211;SDS011;16228;48.800;9.002;2023-02-15T12:51:31;16.33;;;13.77;;
211;SDS011;16228;48.800;9.002;2023-02-15T12:57:13;17.53;;;14.70;;
211;SDS011;16228;48.800;9.002;2023-02-15T12:59:54;17.87;;;14.83;;
211;SDS011;16228;48.800;9.002;2023-02-15T13:02:27;16.33;;;14.33;;
211;SDS011;16228;48.800;9.002;2023-02-15T13:04:56;16.10;;;14.20;;
211;SDS011;16228;48.800;9.002;2023-02-15T13:07:31;17.97;;;15.93;;
211;SDS011;16228;48.800;9.002;2023-02-15T13:09:58;20.63;;;16.57;;
211;SDS011;16228;48.800;9.002;2023-02-15T13:12:26;17.93;;;16.07;;
211;SDS011;16228;48.800;9.002;2023-02-15T13:14:57;21.37;;;15.60;;
211;SDS011;16228;48.800;9.002;2023-02-15T13:17:27;19.17;;;17.17;;
211;SDS011;16228;48.800;9.002;2023-02-15T13:19:57;22.40;;;17.43;;
211;SDS011;16228;48.800;9.002;2023-02-15T13:22:31;18.90;;;16.90;;
211;SDS011;16228;48.800;9.002;2023-02-15T13:25:04;20.63;;;17.20;;
211;SDS011;16228;48.800;9.002;2023-02-15T13:27:38;21.80;;;17.50;;
211;SDS011;16228;48.800;9.002;2023-02-15T13:30:16;22.37;;;17.93;;
211;SDS011;16228;48.800;9.002;2023-02-15T13:32:51;20.10;;;17.80;;
211;SDS011;16228;48.800;9.002;2023-02-15T13:35:20;20.13;;;17.43;;
211;SDS011;16228;48.800;9.002;2023-02-15T13:40:42;20.17;;;17.50;;
211;SDS011;16228;48.800;9.002;2023-02-15T13:43:20;19.93;;;17.30;;
211;SDS011;16228;48.800;9.002;2023-02-15T13:46:00;19.23;;;16.83;;
211;SDS011;16228;48.800;9.002;2023-02-15T13:48:41;19.50;;;16.87;;
211;SDS011;16228;48.800;9.002;2023-02-15T13:51:19;22.50;;;18.17;;
211;SDS011;16228;48.800;9.002;2023-02-15T13:54:03;20.30;;;18.20;;
211;SDS011;16228;48.800;9.002;2023-02-15T13:56:53;19.90;;;16.53;;
211;SDS011;16228;48.800;9.002;2023-02-15T13:59:30;23.07;;;17.20;;
211;SDS011;16228;48.800;9.002;2023-02-15T14:02:30;21.33;;;16.10;;
211;SDS011;16228;48.800;9.002;2023-02-15T14:05:15;20.90;;;17.33;;
211;SDS011;16228;48.800;9.002;2023-02-15T14:08:04;22.73;;;17.67;;
211;SDS011;16228;48.800;9.002;2023-02-15T14:10:40;21.90;;;17.67;;
211;SDS011;16228;48.800;9.002;2023-02-15T14:13:19;18.77;;;16.77;;
211;SDS011;16228;48.800;9.002;2023-02-15T14:16:08;20.47;;;16.37;;
211;SDS011;16228;48.800;9.002;2023-02-15T14:18:43;19.43;;;17.00;;
211;SDS011;16228;48.800;9.002;2023-02-15T14:21:14;20.57;;;17.27;;
211;SDS011;16228;48.800;9.002;2023-02-15T14:23:52;21.53;;;17.90;;
211;SDS011;16228;48.800;9.002;2023-02-15T14:26:27;22.70;;;18.37;;
211;SDS011;16228;48.800;9.002;2023-02-15T14:29:04;24.17;;;18.80;;
211;SDS011;16228;48.800;9.002;2023-02-15T14:31:43;20.67;;;18.27;;
211;SDS011;16228;48.800;9.002;2023-02-15T14:34:18;26.83;;;20.40;;
211;SDS011;16228;48.800;9.002;2023-02-15T14:36:49;23.03;;;19.00;;
211;SDS011;16228;48.800;9.002;2023-02-15T14:39:22;26.10;;;20.83;;
211;SDS011;16228;48.800;9.002;2023-02-15T14:42:15;32.77;;;23.07;;
211;SDS011;16228;48.800;9.002;2023-02-15T14:44:48;28.00;;;22.17;;
211;SDS011;16228;48.800;9.002;2023-02-15T14:47:21;28.57;;;21.40;;
211;SDS011;16228;48.800;9.002;2023-02-15T14:49:54;29.83;;;22.00;;
211;SDS011;16228;48.800;9.002;2023-02-15T14:52:21;28.57;;;23.83;;
211;SDS011;16228;48.800;9.002;2023-02-15T14:54:55;29.90;;;22.20;;
211;SDS011;16228;48.800;9.002;2023-02-15T14:57:34;28.23;;;21.37;;
211;SDS011;16228;48.800;9.002;2023-02-15T15:03:03;26.77;;;22.23;;
211;SDS011;16228;48.800;9.002;2023-02-15T15:05:47;25.90;;;21.20;;
211;SDS011;16228;48.800;9.002;2023-02-15T15:08:21;23.97;;;19.83;;
211;SDS011;16228;48.800;9.002;2023-02-15T15:10:52;24.50;;;20.87;;
211;SDS011;16228;48.800;9.002;2023-02-15T15:13:51;28.67;;;22.17;;
211;SDS011;16228;48.800;9.002;2023-02-15T15:16:29;26.93;;;23.17;;
211;SDS011;16228;48.800;9.002;2023-02-15T15:19:11;26.90;;;22.37;;
211;SDS011;16228;48.800;9.002;2023-02-15T15:22:03;27.30;;;21.90;;
211;SDS011;16228;48.800;9.002;2023-02-15T15:24:46;33.63;;;23.43;;
211;SDS011;16228;48.800;9.002;2023-02-15T15:30:11;26.37;;;21.60;;
211;SDS011;16228;48.800;9.002;2023-02-15T15:33:34;31.13;;;23.23;;
211;SDS011;16228;48.800;9.002;2023-02-15T15:42:51;26.10;;;20.73;;
211;SDS011;16228;48.800;9.002;2023-02-15T15:45:46;25.53;;;21.17;;
211;SDS011;16228;48.800;9.002;2023-02-15T15:48:32;26.53;;;21.97;;
211;SDS011;16228;48.800;9.002;2023-02-15T15:51:05;27.50;;;21.63;;